createdAt,value
2023-06-20T00:01:36.138Z,9.38
2023-06-20T00:04:04.633Z,14.70
2023-06-20T00:06:32.470Z,10.10
2023-06-20T00:09:00.335Z,9.80
2023-06-20T00:11:28.477Z,13.93
2023-06-20T00:13:58.510Z,11.73
2023-06-20T00:16:26.295Z,12.75
2023-06-20T00:18:55.835Z,17.35
2023-06-20T00:21:26.696Z,19.13
2023-06-20T00:23:54.622Z,18.02
2023-06-20T00:26:22.561Z,12.35
2023-06-20T00:28:51.802Z,13.85
2023-06-20T00:31:21.051Z,16.10
2023-06-20T00:33:48.857Z,13.95
2023-06-20T00:36:16.694Z,13.30
2023-06-20T00:38:49.795Z,11.75
2023-06-20T00:41:17.908Z,17.50
2023-06-20T00:43:45.717Z,13.45
2023-06-20T00:46:13.548Z,17.63
2023-06-20T00:48:42.766Z,17.90
2023-06-20T00:51:10.812Z,17.10
2023-06-20T00:53:38.937Z,18.17
2023-06-20T00:56:07.807Z,18.35
2023-06-20T00:58:35.558Z,12.73
2023-06-20T01:01:03.388Z,15.18
2023-06-20T01:03:32.614Z,13.90
2023-06-20T01:06:12.562Z,14.85
2023-06-20T01:08:47.403Z,16.35
2023-06-20T01:11:23.313Z,15.17
2023-06-20T01:14:00.057Z,13.13
2023-06-20T01:16:37.469Z,14.30
2023-06-20T01:19:16.021Z,14.32
2023-06-20T01:21:52.472Z,14.13
2023-06-20T01:24:25.875Z,21.00
2023-06-20T01:26:59.755Z,16.10
2023-06-20T01:29:33.941Z,15.65
2023-06-20T01:32:06.845Z,15.77
2023-06-20T01:34:40.725Z,14.70
2023-06-20T01:37:14.513Z,10.70
2023-06-20T01:39:47.697Z,10.68
2023-06-20T01:42:17.327Z,11.27
2023-06-20T01:44:47.584Z,11.25
2023-06-20T01:47:17.454Z,12.70
2023-06-20T01:49:47.260Z,10.48
2023-06-20T01:52:16.305Z,8.10
2023-06-20T01:54:47.627Z,7.20
2023-06-20T01:57:17.269Z,9.07
2023-06-20T01:59:46.187Z,6.35
2023-06-20T02:02:15.331Z,6.53
2023-06-20T02:04:43.953Z,7.65
2023-06-20T02:07:12.166Z,5.65
2023-06-20T02:09:40.301Z,5.40
2023-06-20T02:12:11.501Z,4.95
2023-06-20T02:14:40.593Z,5.93
2023-06-20T02:17:09.738Z,4.85
2023-06-20T02:19:37.624Z,4.70
2023-06-20T02:22:06.472Z,7.22
2023-06-20T02:24:37.179Z,5.57
2023-06-20T02:27:07.547Z,5.40
2023-06-20T02:29:39.151Z,6.78
2023-06-20T02:32:08.133Z,4.38
2023-06-20T02:34:37.062Z,4.78
2023-06-20T02:37:07.959Z,4.13
2023-06-20T02:39:35.799Z,6.10
2023-06-20T02:42:03.584Z,4.97
2023-06-20T02:44:31.428Z,5.20
2023-06-20T02:47:06.898Z,7.13
2023-06-20T02:49:43.896Z,7.38
2023-06-20T02:52:20.508Z,7.88
2023-06-20T02:54:55.302Z,7.90
2023-06-20T02:57:23.315Z,8.50
2023-06-20T02:59:57.538Z,8.30
2023-06-20T03:02:31.876Z,7.55
2023-06-20T03:05:02.637Z,7.47
2023-06-20T03:07:34.868Z,7.35
2023-06-20T03:10:05.031Z,6.45
2023-06-20T03:12:33.031Z,7.65
2023-06-20T03:15:00.819Z,8.20
2023-06-20T03:17:29.917Z,9.80
2023-06-20T03:19:57.785Z,7.97
2023-06-20T03:22:25.556Z,7.22
2023-06-20T03:24:53.294Z,8.88
2023-06-20T03:27:21.051Z,8.93
2023-06-20T03:29:48.803Z,9.30
2023-06-20T03:32:16.571Z,8.32
2023-06-20T03:34:46.020Z,11.32
2023-06-20T03:37:13.774Z,8.85
2023-06-20T03:39:41.543Z,12.50
2023-06-20T03:42:09.764Z,9.70
2023-06-20T03:44:37.552Z,12.40
2023-06-20T03:47:05.862Z,13.43
2023-06-20T03:49:33.735Z,11.57
2023-06-20T03:52:03.032Z,11.23
2023-06-20T03:54:30.936Z,11.90
2023-06-20T03:56:58.692Z,10.57
2023-06-20T03:59:26.514Z,13.95
2023-06-20T04:01:54.558Z,11.90
2023-06-20T04:04:23.684Z,10.20
2023-06-20T04:06:51.621Z,11.52
2023-06-20T04:09:21.124Z,10.55
2023-06-20T04:11:49.031Z,16.30
2023-06-20T04:14:16.768Z,9.90
2023-06-20T04:16:45.091Z,11.60
2023-06-20T04:19:12.863Z,13.45
2023-06-20T04:21:40.684Z,10.40
2023-06-20T04:24:08.876Z,11.15
2023-06-20T04:26:38.226Z,12.52
2023-06-20T04:29:05.998Z,13.05
2023-06-20T04:31:34.215Z,14.50
2023-06-20T04:34:01.973Z,14.07
2023-06-20T04:36:31.136Z,14.13
2023-06-20T04:38:58.985Z,13.57
2023-06-20T04:41:26.788Z,14.80
2023-06-20T04:43:55.888Z,13.57
2023-06-20T04:46:23.766Z,15.07
2023-06-20T04:48:51.651Z,14.18
2023-06-20T04:51:19.510Z,12.23
2023-06-20T04:53:50.735Z,13.25
2023-06-20T04:56:18.604Z,13.35
2023-06-20T04:58:48.786Z,13.02
2023-06-20T05:01:18.072Z,12.98
2023-06-20T05:03:49.164Z,9.65
2023-06-20T05:06:19.027Z,9.13
2023-06-20T05:08:46.840Z,9.38
2023-06-20T05:11:14.793Z,10.95
2023-06-20T05:13:42.554Z,12.07
2023-06-20T05:16:10.387Z,10.65
2023-06-20T05:18:40.155Z,10.68
2023-06-20T05:21:08.020Z,9.27
2023-06-20T05:23:35.850Z,10.10
2023-06-20T05:26:04.002Z,7.45
2023-06-20T05:28:31.840Z,7.57
2023-06-20T05:30:59.638Z,7.93
2023-06-20T05:33:27.549Z,9.88
2023-06-20T05:35:58.434Z,7.85
2023-06-20T05:38:26.274Z,7.78
2023-06-20T05:40:55.665Z,10.35
2023-06-20T05:43:23.434Z,11.00
2023-06-20T05:45:51.158Z,14.52
2023-06-20T05:48:19.139Z,7.97
2023-06-20T05:50:46.969Z,11.75
2023-06-20T05:53:16.251Z,9.73
2023-06-20T05:55:44.268Z,8.00
2023-06-20T05:58:12.039Z,11.35
2023-06-20T06:00:39.798Z,8.98
2023-06-20T06:03:07.705Z,10.65
2023-06-20T06:05:35.859Z,10.80
2023-06-20T06:08:03.683Z,10.45
2023-06-20T06:10:32.786Z,10.48
2023-06-20T06:13:00.773Z,10.52
2023-06-20T06:15:28.598Z,9.73
2023-06-20T06:17:56.478Z,9.25
2023-06-20T06:20:25.840Z,12.38
2023-06-20T06:22:53.993Z,9.75
2023-06-20T06:25:21.771Z,10.85
2023-06-20T06:27:52.457Z,8.23
2023-06-20T06:30:23.597Z,8.50
2023-06-20T06:32:51.906Z,8.48
2023-06-20T06:35:20.428Z,9.98
2023-06-20T06:37:49.478Z,8.38
2023-06-20T06:40:17.217Z,9.63
2023-06-20T06:42:46.499Z,8.43
2023-06-20T06:45:15.785Z,8.68
2023-06-20T06:47:43.561Z,9.77
2023-06-20T06:50:11.792Z,9.05
2023-06-20T06:52:41.090Z,8.70
2023-06-20T06:55:09.364Z,7.97
2023-06-20T06:57:37.268Z,8.90
2023-06-20T07:00:11.751Z,9.02
2023-06-20T07:02:43.001Z,8.38
2023-06-20T07:05:11.378Z,9.07
2023-06-20T07:07:39.306Z,10.73
2023-06-20T07:10:08.321Z,8.75
2023-06-20T07:12:36.066Z,9.38
2023-06-20T07:15:03.990Z,8.25
2023-06-20T07:17:31.879Z,8.15
2023-06-20T07:20:00.986Z,9.13
2023-06-20T07:22:28.859Z,9.93
2023-06-20T07:24:57.488Z,9.65
2023-06-20T07:27:25.458Z,11.27
2023-06-20T07:29:53.258Z,7.95
2023-06-20T07:32:21.114Z,10.32
2023-06-20T07:34:49.546Z,8.85
2023-06-20T07:37:18.892Z,8.77
2023-06-20T07:39:47.937Z,7.60
2023-06-20T07:42:15.975Z,10.93
2023-06-20T07:44:43.840Z,9.88
2023-06-20T07:47:11.645Z,9.40
2023-06-20T07:49:41.404Z,9.80
2023-06-20T07:52:10.513Z,7.60
2023-06-20T07:54:39.651Z,8.43
2023-06-20T07:57:08.184Z,9.55
2023-06-20T07:59:36.402Z,8.57
2023-06-20T08:02:06.215Z,11.88
2023-06-20T08:04:36.133Z,8.23
2023-06-20T08:07:06.007Z,7.90
2023-06-20T08:09:37.259Z,8.95
2023-06-20T08:12:10.000Z,9.27
2023-06-20T08:14:40.065Z,8.65
2023-06-20T08:17:09.909Z,11.02
2023-06-20T08:19:39.806Z,11.38
2023-06-20T08:22:10.174Z,8.90
2023-06-20T08:24:40.057Z,8.75
2023-06-20T08:27:11.580Z,9.18
2023-06-20T08:29:41.481Z,8.68
2023-06-20T08:32:11.425Z,10.45
2023-06-20T08:34:41.420Z,8.57
2023-06-20T08:37:11.335Z,9.80
2023-06-20T08:39:40.961Z,8.05
2023-06-20T08:42:14.140Z,8.25
2023-06-20T08:44:56.247Z,8.25
2023-06-20T08:47:28.155Z,8.77
2023-06-20T08:49:58.806Z,8.13
2023-06-20T08:52:32.451Z,7.57
2023-06-20T08:55:04.332Z,8.27
2023-06-20T08:57:33.828Z,8.40
2023-06-20T09:00:01.727Z,10.32
2023-06-20T09:02:29.660Z,7.40
2023-06-20T09:05:04.436Z,8.18
2023-06-20T09:10:08.200Z,6.95
2023-06-20T09:12:48.628Z,6.68
2023-06-20T09:15:17.199Z,8.23
2023-06-20T09:17:45.423Z,8.05
2023-06-20T09:20:15.038Z,7.38
2023-06-20T09:22:43.796Z,7.68
2023-06-20T09:25:12.880Z,9.18
2023-06-20T09:27:42.717Z,9.30
2023-06-20T09:30:12.326Z,8.02
2023-06-20T09:32:42.082Z,9.10
2023-06-20T09:35:11.990Z,9.70
2023-06-20T09:37:43.628Z,9.38
2023-06-20T09:40:12.943Z,8.70
2023-06-20T09:42:41.776Z,8.05
2023-06-20T09:45:12.277Z,8.05
2023-06-20T09:47:42.264Z,8.32
2023-06-20T09:50:14.218Z,7.78
2023-06-20T09:52:47.558Z,9.85
2023-06-20T09:55:17.324Z,10.32
2023-06-20T09:57:49.560Z,8.88
2023-06-20T10:00:20.091Z,10.88
2023-06-20T10:02:49.569Z,10.77
2023-06-20T10:05:19.208Z,8.55
2023-06-20T10:07:49.669Z,9.52
2023-06-20T10:10:19.035Z,11.88
2023-06-20T10:12:48.287Z,9.10
2023-06-20T10:15:18.290Z,7.88
2023-06-20T10:17:48.176Z,6.97
2023-06-20T10:20:28.077Z,8.02
2023-06-20T10:22:59.276Z,7.57
2023-06-20T10:25:28.824Z,10.02
2023-06-20T10:27:58.848Z,7.93
2023-06-20T10:31:04.953Z,10.52
2023-06-20T10:33:33.920Z,8.15
2023-06-20T10:36:04.417Z,7.18
2023-06-20T10:38:34.825Z,6.78
2023-06-20T10:41:13.626Z,6.30
2023-06-20T10:43:51.817Z,5.90
2023-06-20T10:46:22.455Z,6.43
2023-06-20T10:48:50.587Z,6.35
2023-06-20T10:51:18.583Z,9.55
2023-06-20T10:53:46.713Z,8.77
2023-06-20T10:56:25.159Z,9.75
2023-06-20T10:58:52.976Z,6.35
2023-06-20T11:01:27.045Z,5.90
2023-06-20T11:03:54.953Z,6.50
2023-06-20T11:06:23.484Z,5.85
2023-06-20T11:08:51.228Z,5.75
2023-06-20T11:11:18.996Z,7.57
2023-06-20T11:13:46.809Z,6.47
2023-06-20T11:16:21.615Z,5.90
2023-06-20T11:18:49.431Z,5.57
2023-06-20T11:21:17.955Z,8.85
2023-06-20T11:23:45.735Z,7.40
2023-06-20T11:26:13.534Z,5.53
2023-06-20T11:28:41.337Z,5.80
2023-06-20T11:31:12.601Z,5.55
2023-06-20T11:33:41.892Z,7.90
2023-06-20T11:36:10.607Z,7.80
2023-06-20T11:38:40.413Z,6.20
2023-06-20T11:41:10.232Z,5.30
2023-06-20T11:43:39.309Z,6.57
2023-06-20T11:46:08.286Z,4.35
2023-06-20T11:48:37.771Z,5.22
2023-06-20T11:51:08.280Z,5.38
2023-06-20T11:53:37.751Z,4.70
2023-06-20T11:58:40.408Z,7.10
2023-06-20T12:01:10.387Z,6.72
2023-06-20T12:03:39.544Z,4.82
2023-06-20T12:06:30.908Z,5.32
2023-06-20T12:08:59.963Z,5.57
2023-06-20T12:11:28.399Z,4.93
2023-06-20T12:13:56.948Z,4.60
2023-06-20T12:16:26.993Z,5.45
2023-06-20T12:18:57.839Z,5.20
2023-06-20T12:21:25.650Z,4.80
2023-06-20T12:23:54.813Z,7.22
2023-06-20T12:26:22.804Z,5.15
2023-06-20T12:28:50.652Z,6.85
2023-06-20T12:31:18.593Z,5.88
2023-06-20T12:33:46.525Z,5.72
2023-06-20T12:36:14.349Z,6.88
2023-06-20T12:38:43.061Z,6.88
2023-06-20T12:41:13.067Z,6.00
2023-06-20T12:43:41.673Z,9.88
2023-06-20T12:46:14.242Z,5.75
2023-06-20T12:48:43.936Z,4.90
2023-06-20T12:51:11.741Z,5.85
2023-06-20T12:53:39.559Z,7.95
2023-06-20T12:56:07.487Z,6.13
2023-06-20T12:58:37.249Z,4.65
2023-06-20T13:01:05.285Z,6.65
2023-06-20T13:03:34.404Z,5.45
2023-06-20T13:06:02.538Z,5.30
2023-06-20T13:08:30.566Z,5.57
2023-06-20T13:10:59.037Z,4.38
2023-06-20T13:13:27.378Z,6.60
2023-06-20T13:15:56.926Z,5.18
2023-06-20T13:18:24.941Z,6.60
2023-06-20T13:20:53.697Z,6.25
2023-06-20T13:23:21.441Z,5.55
2023-06-20T13:25:49.425Z,7.18
2023-06-20T13:28:17.439Z,5.72
2023-06-20T13:30:45.273Z,7.93
2023-06-20T13:33:14.412Z,8.20
2023-06-20T13:35:42.165Z,5.57
2023-06-20T13:38:11.784Z,7.13
2023-06-20T13:40:40.068Z,5.93
2023-06-20T13:43:08.051Z,7.05
2023-06-20T13:45:36.056Z,8.63
2023-06-20T13:48:04.067Z,8.25
2023-06-20T13:50:34.285Z,7.68
2023-06-20T13:53:05.894Z,10.80
2023-06-20T13:55:34.114Z,7.28
2023-06-20T13:58:02.225Z,6.03
2023-06-20T14:00:30.267Z,7.20
2023-06-20T14:02:58.332Z,7.10
2023-06-20T14:05:26.452Z,6.93
2023-06-20T14:07:55.647Z,10.60
2023-06-20T14:10:24.232Z,5.75
2023-06-20T14:12:52.975Z,6.75
2023-06-20T14:15:20.795Z,5.68
2023-06-20T14:17:49.141Z,7.72
2023-06-20T14:20:17.799Z,6.25
2023-06-20T14:22:45.644Z,9.57
2023-06-20T14:25:14.849Z,7.82
2023-06-20T14:27:42.685Z,6.57
2023-06-20T14:30:11.273Z,9.35
2023-06-20T14:32:39.172Z,6.88
2023-06-20T14:35:07.480Z,8.02
2023-06-20T14:37:35.225Z,10.48
2023-06-20T14:40:03.199Z,6.78
2023-06-20T14:42:32.367Z,7.72
2023-06-20T14:45:00.217Z,6.18
2023-06-20T14:47:28.728Z,8.40
2023-06-20T14:49:56.556Z,6.93
2023-06-20T14:52:24.371Z,9.27
2023-06-20T14:54:52.244Z,7.47
2023-06-20T14:57:20.053Z,5.90
2023-06-20T14:59:49.168Z,7.72
2023-06-20T15:02:16.965Z,6.00
2023-06-20T15:04:44.772Z,8.15
2023-06-20T15:07:12.607Z,8.07
2023-06-20T15:09:40.418Z,6.95
2023-06-20T15:12:09.948Z,12.82
2023-06-20T15:14:37.771Z,8.35
2023-06-20T15:17:07.350Z,8.27
2023-06-20T15:19:35.157Z,7.60
2023-06-20T15:22:03.048Z,9.80
2023-06-20T15:24:33.578Z,7.38
2023-06-20T15:27:01.472Z,7.03
2023-06-20T15:29:29.329Z,6.15
2023-06-20T15:31:57.275Z,9.45
2023-06-20T15:34:29.187Z,7.10
2023-06-20T15:36:56.979Z,10.55
2023-06-20T15:39:25.219Z,8.30
2023-06-20T15:41:53.340Z,13.07
2023-06-20T15:44:21.136Z,7.82
2023-06-20T15:46:54.488Z,8.93
2023-06-20T15:49:23.786Z,11.13
2023-06-20T15:51:53.102Z,8.30
2023-06-20T15:54:20.906Z,7.70
2023-06-20T15:56:48.666Z,10.38
2023-06-20T15:59:17.456Z,9.57
2023-06-20T16:01:46.497Z,7.72
2023-06-20T16:04:14.517Z,7.07
2023-06-20T16:06:42.451Z,9.88
2023-06-20T16:09:11.916Z,6.97
2023-06-20T16:11:39.725Z,7.55
2023-06-20T16:14:07.635Z,7.53
2023-06-20T16:16:35.468Z,9.63
2023-06-20T16:19:03.498Z,9.43
2023-06-20T16:21:32.569Z,10.35
2023-06-20T16:24:00.617Z,7.57
2023-06-20T16:26:29.941Z,9.48
2023-06-20T16:28:57.892Z,6.47
2023-06-20T16:31:25.789Z,10.07
2023-06-20T16:33:53.941Z,8.85
2023-06-20T16:36:21.720Z,8.88
2023-06-20T16:38:50.958Z,11.30
2023-06-20T16:41:18.854Z,11.13
2023-06-20T16:43:48.024Z,6.80
2023-06-20T16:46:15.879Z,12.57
2023-06-20T16:48:44.457Z,10.57
2023-06-20T16:51:12.344Z,9.95
2023-06-20T16:53:43.377Z,15.93
2023-06-20T16:56:11.155Z,11.88
2023-06-20T16:58:38.945Z,9.73
2023-06-20T17:01:09.703Z,8.82
2023-06-20T17:03:37.538Z,8.35
2023-06-20T17:06:05.516Z,11.45
2023-06-20T17:08:33.255Z,11.13
2023-06-20T17:11:01.053Z,11.27
2023-06-20T17:13:28.878Z,9.45
2023-06-20T17:15:56.644Z,9.27
2023-06-20T17:18:25.796Z,9.60
2023-06-20T17:20:53.629Z,8.68
2023-06-20T17:23:21.515Z,8.10
2023-06-20T17:25:49.305Z,14.50
2023-06-20T17:28:17.074Z,13.48
2023-06-20T17:30:44.877Z,9.50
2023-06-20T17:33:13.090Z,7.85
2023-06-20T17:35:42.561Z,12.18
2023-06-20T17:38:10.441Z,7.47
2023-06-20T17:40:40.276Z,9.75
2023-06-20T17:43:08.214Z,14.48
2023-06-20T17:45:36.828Z,10.13
2023-06-20T17:48:05.698Z,11.02
2023-06-20T17:50:33.584Z,9.35
2023-06-20T17:53:03.124Z,8.48
2023-06-20T17:55:31.593Z,11.40
2023-06-20T17:58:02.022Z,7.82
2023-06-20T18:00:32.386Z,8.48
2023-06-20T18:03:01.733Z,9.30
2023-06-20T18:05:32.939Z,9.27
2023-06-20T18:08:02.203Z,8.57
2023-06-20T18:10:30.510Z,10.73
2023-06-20T18:12:59.796Z,11.38
2023-06-20T18:15:29.746Z,7.15
2023-06-20T18:17:57.929Z,7.45
2023-06-20T18:20:26.212Z,9.90
2023-06-20T18:22:54.306Z,8.90
2023-06-20T18:25:23.680Z,8.95
2023-06-20T18:27:51.854Z,15.68
2023-06-20T18:30:20.302Z,10.13
2023-06-20T18:32:48.221Z,11.48
2023-06-20T18:35:17.579Z,7.43
2023-06-20T18:37:45.516Z,8.77
2023-06-20T18:40:14.464Z,11.75
2023-06-20T18:42:43.791Z,14.75
2023-06-20T18:45:12.433Z,8.90
2023-06-20T18:47:41.245Z,10.20
2023-06-20T18:50:10.297Z,9.93
2023-06-20T18:52:39.477Z,12.70
2023-06-20T18:55:08.468Z,9.65
2023-06-20T18:57:36.383Z,12.43
2023-06-20T19:00:09.685Z,12.68
2023-06-20T19:02:37.762Z,9.95
2023-06-20T19:05:06.725Z,11.90
2023-06-20T19:07:34.625Z,10.05
2023-06-20T19:10:02.595Z,9.68
2023-06-20T19:12:30.556Z,13.60
2023-06-20T19:14:59.410Z,13.75
2023-06-20T19:17:29.005Z,9.65
2023-06-20T19:19:56.757Z,19.00
2023-06-20T19:22:24.833Z,21.15
2023-06-20T19:24:52.789Z,20.00
2023-06-20T19:27:20.781Z,21.40
2023-06-20T19:29:48.562Z,16.35
2023-06-20T19:32:16.346Z,15.27
2023-06-20T19:34:47.141Z,13.73
2023-06-20T19:37:17.020Z,21.05
2023-06-20T19:39:44.784Z,17.00
2023-06-20T19:42:12.579Z,14.30
2023-06-20T19:44:40.421Z,16.75
2023-06-20T19:47:08.749Z,12.15
2023-06-20T19:49:37.008Z,16.52
2023-06-20T19:52:06.988Z,12.23
2023-06-20T19:54:34.786Z,14.88
2023-06-20T19:57:03.937Z,16.55
2023-06-20T19:59:31.955Z,14.82
2023-06-20T20:02:00.190Z,20.05
2023-06-20T20:04:29.114Z,13.95
2023-06-20T20:06:57.311Z,15.75
2023-06-20T20:09:26.936Z,13.52
2023-06-20T20:11:54.907Z,15.52
2023-06-20T20:14:23.238Z,13.75
2023-06-20T20:16:51.040Z,11.85
2023-06-20T20:19:18.889Z,12.98
2023-06-20T20:21:47.233Z,17.77
2023-06-20T20:24:15.722Z,15.00
2023-06-20T20:26:45.282Z,14.45
2023-06-20T20:29:13.072Z,14.63
2023-06-20T20:31:40.953Z,14.68
2023-06-20T20:34:08.872Z,17.48
2023-06-20T20:36:36.960Z,13.20
2023-06-20T20:39:04.866Z,11.40
2023-06-20T20:41:32.995Z,14.77
2023-06-20T20:44:02.362Z,15.52
2023-06-20T20:46:30.324Z,17.48
2023-06-20T20:48:59.260Z,17.30
2023-06-20T20:51:27.381Z,19.85
2023-06-20T20:53:55.172Z,14.38
2023-06-20T20:56:22.968Z,13.20
2023-06-20T20:58:50.831Z,13.48
2023-06-20T21:01:20.859Z,14.50
2023-06-20T21:03:48.817Z,15.10
2023-06-20T21:06:17.332Z,10.93
2023-06-20T21:08:45.331Z,14.80
2023-06-20T21:11:13.164Z,10.10
2023-06-20T21:13:41.013Z,12.57
2023-06-20T21:16:12.411Z,11.05
2023-06-20T21:18:41.675Z,15.07
2023-06-20T21:21:09.509Z,14.43
2023-06-20T21:23:38.696Z,9.88
2023-06-20T21:26:06.530Z,31.67
2023-06-20T21:28:34.551Z,12.95
2023-06-20T21:31:03.645Z,11.07
2023-06-20T21:33:32.586Z,9.40
2023-06-20T21:36:02.060Z,12.85
2023-06-20T21:38:30.217Z,12.57
2023-06-20T21:40:58.184Z,10.00
2023-06-20T21:43:26.103Z,11.32
2023-06-20T21:45:54.075Z,13.15
2023-06-20T21:48:23.039Z,14.15
2023-06-20T21:50:50.943Z,11.85
2023-06-20T21:53:20.060Z,15.75
2023-06-20T21:55:47.948Z,11.30
2023-06-20T21:58:15.855Z,9.50
2023-06-20T22:00:43.643Z,13.43
2023-06-20T22:03:11.801Z,13.23
2023-06-20T22:05:39.798Z,11.27
2023-06-20T22:08:07.593Z,11.60
2023-06-20T22:10:40.939Z,10.80
2023-06-20T22:13:13.630Z,13.40
2023-06-20T22:15:41.409Z,13.20
2023-06-20T22:18:09.714Z,13.43
2023-06-20T22:20:37.851Z,11.10
2023-06-20T22:23:05.601Z,9.70
2023-06-20T22:25:33.386Z,13.23
2023-06-20T22:28:02.539Z,11.90
2023-06-20T22:30:30.435Z,10.63
2023-06-20T22:32:58.305Z,17.35
2023-06-20T22:35:26.133Z,17.17
2023-06-20T22:37:53.857Z,11.75
2023-06-20T22:40:21.632Z,11.95
2023-06-20T22:42:49.397Z,14.77
2023-06-20T22:45:18.566Z,9.65
2023-06-20T22:47:46.351Z,10.63
2023-06-20T22:50:14.212Z,9.05
2023-06-20T22:52:42.043Z,10.15
2023-06-20T22:55:10.131Z,12.52
2023-06-20T22:57:38.216Z,11.57
2023-06-20T23:00:09.066Z,13.35
2023-06-20T23:02:39.017Z,12.10
2023-06-20T23:05:08.748Z,11.55
2023-06-20T23:07:36.542Z,10.35
2023-06-20T23:10:04.672Z,11.70
2023-06-20T23:12:32.524Z,13.80
2023-06-20T23:15:00.655Z,11.73
2023-06-20T23:17:28.529Z,15.77
2023-06-20T23:19:57.693Z,14.15
2023-06-20T23:22:28.105Z,10.85
2023-06-20T23:24:55.841Z,14.10
2023-06-20T23:27:24.805Z,10.45
2023-06-20T23:29:52.565Z,14.50
2023-06-20T23:32:20.378Z,10.75
2023-06-20T23:34:48.949Z,13.02
2023-06-20T23:37:20.689Z,12.80
2023-06-20T23:39:48.523Z,13.23
2023-06-20T23:42:16.350Z,14.45
2023-06-20T23:48:32.694Z,12.82
2023-06-20T23:51:00.663Z,12.60
2023-06-20T23:53:29.796Z,13.60
2023-06-20T23:55:57.732Z,13.15
2023-06-20T23:58:25.554Z,14.35
